Time;durP1;ratioP1;P1;durP2;ratioP2;P2;SDS_P1;SDS_P2;PMS_P1;PMS_P2;Temp;Humidity;BMP_temperature;BMP_pressure;BME280_temperature;BME280_humidity;BME280_pressure;Samples;Min_cycle;Max_cycle;Signal;HPM_P1;HPM_P2
2021/12/06 00:00:26;;;;;;;58.88;29.02;;;;;;;0.45;95.21;101333.75;2000361;29;43335;-62
2021/12/06 00:01:52;;;;;;;54.42;28.05;;;;;;;0.45;95.40;101331.09;1993726;29;37111;-62
2021/12/06 00:02:59;;;;;;;55.08;27.98;;;;;;;0.45;94.96;101337.28;1997478;29;44343;-62
2021/12/06 00:04:04;;;;;;;53.05;26.50;;;;;;;0.45;94.51;101336.38;2001408;29;46770;-62
2021/12/06 00:05:07;;;;;;;56.58;28.73;;;;;;;0.46;94.80;101336.41;2001726;29;32609;-62
2021/12/06 00:06:12;;;;;;;58.85;29.15;;;;;;;0.46;95.11;101344.31;2001514;29;44093;-62
2021/12/06 00:07:21;;;;;;;59.80;29.33;;;;;;;0.46;95.20;101343.44;2001314;29;43595;-62
2021/12/06 00:08:22;;;;;;;58.58;28.88;;;;;;;0.47;95.12;101345.25;2001461;29;44302;-62
2021/12/06 00:09:27;;;;;;;62.05;29.35;;;;;;;0.47;95.24;101345.25;2001060;29;44014;-62
2021/12/06 00:10:29;;;;;;;62.30;29.73;;;;;;;0.48;95.05;101345.25;2001983;29;20038;-62
2021/12/06 00:11:31;;;;;;;62.88;30.42;;;;;;;0.48;95.07;101347.00;2001686;29;33278;-62
2021/12/06 00:12:33;;;;;;;57.55;28.08;;;;;;;0.46;94.95;101344.31;2002034;29;44598;-62
2021/12/06 00:13:39;;;;;;;60.85;29.23;;;;;;;0.46;95.09;101343.44;2001112;29;44194;-62
2021/12/06 00:14:42;;;;;;;63.95;29.98;;;;;;;0.46;95.18;101344.31;2001320;29;40210;-62
2021/12/06 00:15:45;;;;;;;59.08;30.40;;;;;;;0.46;94.91;101341.69;1993692;29;32125;-62
2021/12/06 00:16:47;;;;;;;60.53;29.27;;;;;;;0.47;94.83;101345.25;1993186;29;45734;-62
2021/12/06 00:17:49;;;;;;;61.60;30.30;;;;;;;0.46;95.13;101346.97;2001493;29;46088;-62
2021/12/06 00:18:52;;;;;;;58.40;29.40;;;;;;;0.45;95.10;101347.81;2001905;29;33570;-62
2021/12/06 00:19:54;;;;;;;55.15;26.85;;;;;;;0.46;94.95;101348.72;2000809;29;46447;-62
2021/12/06 00:20:55;;;;;;;60.70;29.27;;;;;;;0.47;94.54;101358.41;2001386;29;41185;-62
2021/12/06 00:22:00;;;;;;;60.17;29.40;;;;;;;0.47;95.02;101350.50;2002563;29;30420;-62
2021/12/06 00:23:02;;;;;;;59.42;29.33;;;;;;;0.45;94.57;101347.81;1992743;29;46437;-61
2021/12/06 00:24:04;;;;;;;58.88;28.80;;;;;;;0.45;95.01;101347.81;1993178;29;43831;-62
2021/12/06 00:25:09;;;;;;;57.13;28.65;;;;;;;0.45;94.48;101346.91;2002799;29;21005;-61
2021/12/06 00:26:11;;;;;;;60.78;29.75;;;;;;;0.45;94.57;101352.19;2000973;29;45969;-62
2021/12/06 00:27:13;;;;;;;59.10;29.40;;;;;;;0.45;95.16;101352.19;2001423;29;36284;-61
2021/12/06 00:28:17;;;;;;;63.13;29.33;;;;;;;0.43;95.17;101349.53;2000162;29;45201;-62
2021/12/06 00:29:19;;;;;;;60.45;28.58;;;;;;;0.45;94.78;101353.09;2000779;29;42408;-62
2021/12/06 00:30:23;;;;;;;63.78;29.58;;;;;;;0.46;94.85;101348.72;2000397;29;45635;-61
2021/12/06 00:31:32;;;;;;;59.72;28.25;;;;;;;0.45;94.91;101345.19;1994105;29;20043;-62
2021/12/06 00:32:34;;;;;;;67.22;30.35;;;;;;;0.46;94.99;101346.06;1987189;29;20039;-62
2021/12/06 00:33:37;;;;;;;60.45;29.55;;;;;;;0.46;95.01;101351.34;1993854;29;24952;-62
2021/12/06 00:34:39;;;;;;;58.90;29.17;;;;;;;0.45;95.17;101347.81;2002506;29;43786;-62
2021/12/06 00:35:42;;;;;;;61.90;28.67;;;;;;;0.46;95.23;101348.72;2001268;29;44466;-62
2021/12/06 00:36:53;;;;;;;61.72;29.67;;;;;;;0.45;95.06;101357.44;2001004;29;35533;-62
2021/12/06 00:37:58;;;;;;;62.53;29.45;;;;;;;0.46;94.96;101359.25;2001171;29;45419;-62
2021/12/06 00:39:04;;;;;;;62.80;29.70;;;;;;;0.48;95.08;101357.53;2000785;29;24167;-62
2021/12/06 00:40:07;;;;;;;57.40;27.50;;;;;;;0.47;95.01;101355.78;2000761;29;43626;-62
2021/12/06 00:41:08;;;;;;;59.35;27.88;;;;;;;0.47;95.09;101355.78;1993106;29;42339;-62
2021/12/06 00:42:10;;;;;;;61.40;29.88;;;;;;;0.48;94.76;101360.16;1993403;29;36994;-62
2021/12/06 00:43:13;;;;;;;64.85;29.00;;;;;;;0.49;95.15;101361.97;2001221;29;45635;-62
2021/12/06 00:44:15;;;;;;;65.53;28.17;;;;;;;0.47;95.01;101366.31;1999850;29;29409;-62
2021/12/06 00:45:17;;;;;;;63.80;28.73;;;;;;;0.48;95.26;101362.81;2000993;29;42407;-62
2021/12/06 00:46:20;;;;;;;60.65;29.80;;;;;;;0.49;94.94;101361.97;2000845;29;45342;-62
2021/12/06 00:47:24;;;;;;;60.15;28.23;;;;;;;0.49;95.25;101368.13;2002314;29;20047;-62
2021/12/06 00:48:25;;;;;;;65.32;30.58;;;;;;;0.50;95.46;101372.56;2001148;29;44740;-62
2021/12/06 00:49:27;;;;;;;57.78;29.48;;;;;;;0.52;95.49;101364.66;2001879;29;20170;-62
2021/12/06 00:50:33;;;;;;;64.63;28.40;;;;;;;0.51;94.99;101370.78;2001094;29;44662;-62
2021/12/06 00:51:36;;;;;;;60.28;28.60;;;;;;;0.51;95.02;101362.88;1993958;29;20031;-62
2021/12/06 00:52:38;;;;;;;67.05;30.42;;;;;;;0.50;95.17;101362.00;1979299;29;20155;-61
2021/12/06 00:53:41;;;;;;;62.17;29.42;;;;;;;0.52;94.74;101367.28;1986833;29;20093;-62
2021/12/06 00:54:44;;;;;;;61.53;29.63;;;;;;;0.51;94.86;101363.78;1986039;29;20055;-61
2021/12/06 00:55:46;;;;;;;58.38;27.33;;;;;;;0.51;94.84;101363.78;1987188;29;20170;-62
2021/12/06 00:56:51;;;;;;;57.65;28.45;;;;;;;0.51;95.14;101374.31;2002310;29;20030;-62
2021/12/06 00:57:53;;;;;;;61.92;29.10;;;;;;;0.52;95.09;101362.94;2002051;29;20230;-62
2021/12/06 00:58:55;;;;;;;63.95;28.67;;;;;;;0.52;95.30;101364.66;1992872;29;43430;-62
2021/12/06 01:00:00;;;;;;;65.13;29.67;;;;;;;0.53;95.13;101371.72;1993329;29;20228;-62
2021/12/06 01:01:06;;;;;;;56.08;27.65;;;;;;;0.55;95.26;101370.00;1993890;29;21036;-62
2021/12/06 01:02:13;;;;;;;61.97;28.35;;;;;;;0.53;95.00;101377.88;1985888;29;28745;-62
2021/12/06 01:03:21;;;;;;;60.10;28.65;;;;;;;0.54;95.00;101376.16;1994145;29;20887;-62
2021/12/06 01:04:23;;;;;;;60.67;29.75;;;;;;;0.54;95.23;101384.06;2000590;29;41987;-62
2021/12/06 01:05:27;;;;;;;59.08;29.23;;;;;;;0.54;95.26;101384.06;2000509;29;44087;-62
2021/12/06 01:06:30;;;;;;;59.33;27.98;;;;;;;0.55;95.21;101378.78;2000009;29;44669;-62
2021/12/06 01:07:31;;;;;;;56.33;27.60;;;;;;;0.54;95.12;101379.66;2001897;29;20049;-62
2021/12/06 01:08:33;;;;;;;57.00;27.92;;;;;;;0.55;95.00;101383.19;2001518;29;25270;-62
2021/12/06 01:09:35;;;;;;;57.13;28.83;;;;;;;0.55;95.12;101389.34;2002469;29;44707;-62
2021/12/06 01:10:38;;;;;;;57.40;28.02;;;;;;;0.55;94.79;101391.97;2001048;29;44120;-62
2021/12/06 01:11:40;;;;;;;56.95;27.58;;;;;;;0.54;95.15;101389.31;2000915;29;20050;-62
2021/12/06 01:12:42;;;;;;;55.00;28.45;;;;;;;0.55;94.78;101391.09;2000855;29;34289;-62
2021/12/06 01:13:44;;;;;;;60.33;29.27;;;;;;;0.55;95.37;101386.69;2001589;29;26205;-62
2021/12/06 01:14:47;;;;;;;60.97;29.15;;;;;;;0.55;94.99;101388.44;2000831;29;20057;-62
2021/12/06 01:15:52;;;;;;;55.33;28.02;;;;;;;0.55;95.28;101396.34;2000109;29;43181;-62
2021/12/06 01:16:58;;;;;;;57.15;28.13;;;;;;;0.55;94.95;101391.09;2001885;29;20036;-62
2021/12/06 01:18:03;;;;;;;57.30;28.10;;;;;;;0.52;94.77;101380.47;1985731;29;20047;-62
2021/12/06 01:19:06;;;;;;;55.97;28.05;;;;;;;0.51;94.89;101392.75;1979721;29;20162;-62
2021/12/06 01:20:14;;;;;;;54.90;28.80;;;;;;;0.53;94.85;101392.78;1993779;29;20135;-62
2021/12/06 01:21:32;;;;;;;55.05;27.58;;;;;;;0.52;95.00;101385.72;1986246;29;20043;-62
2021/12/06 01:22:48;;;;;;;56.47;27.55;;;;;;;0.52;94.65;101393.63;1990145;29;20043;-62
2021/12/06 01:24:58;;;;;;;57.28;28.10;;;;;;;0.52;94.77;101388.38;1986119;29;20828;-62
2021/12/06 09:23:28;;;;;;;46.13;25.27;;;;;;;0.96;91.24;101565.22;2305747;23;21708;-70
2021/12/06 09:24:32;;;;;;;49.25;27.35;;;;;;;0.97;91.11;101563.47;1997954;29;20054;-63
2021/12/06 09:25:37;;;;;;;45.33;24.92;;;;;;;0.98;91.08;101562.63;1985074;29;29027;-64
2021/12/06 09:26:39;;;;;;;45.22;27.80;;;;;;;0.99;91.40;101557.41;1986083;29;29800;-66
2021/12/06 09:28:06;;;;;;;49.67;27.73;;;;;;;1.02;91.57;101561.84;1994579;29;21403;-67
2021/12/06 09:29:11;;;;;;;48.42;27.42;;;;;;;1.02;91.11;101557.44;2000437;29;20175;-63
2021/12/06 09:30:19;;;;;;;47.42;26.27;;;;;;;1.02;91.34;101552.19;2000920;29;45982;-63
2021/12/06 09:31:21;;;;;;;48.08;25.77;;;;;;;1.00;91.12;101539.81;2000079;29;30742;-63
2021/12/06 09:32:24;;;;;;;45.00;25.42;;;;;;;1.01;91.03;101549.53;2000753;29;44701;-63
2021/12/06 09:33:26;;;;;;;45.92;25.30;;;;;;;0.99;90.97;101545.94;1992907;29;43728;-63
2021/12/06 09:34:29;;;;;;;45.83;24.02;;;;;;;1.01;90.83;101546.91;1993593;29;20155;-63
2021/12/06 09:35:32;;;;;;;46.58;25.38;;;;;;;0.99;90.54;101551.22;2001044;29;34336;-63
2021/12/06 09:36:35;;;;;;;46.72;25.58;;;;;;;1.00;90.49;101537.19;2000503;29;42406;-63
2021/12/06 09:37:39;;;;;;;47.38;25.15;;;;;;;1.02;91.34;101540.75;2000868;29;20053;-63
2021/12/06 09:38:43;;;;;;;44.38;24.35;;;;;;;1.14;92.71;101535.78;1998415;29;45920;-60
2021/12/06 09:39:45;;;;;;;45.88;25.33;;;;;;;1.39;93.12;101541.69;2003177;29;44118;-61
2021/12/06 09:40:51;;;;;;;41.95;22.98;;;;;;;1.20;90.24;101529.78;2001640;29;20138;-62
2021/12/06 09:41:53;;;;;;;43.25;24.08;;;;;;;1.14;90.49;101536.66;2000844;29;42628;-63
2021/12/06 09:42:58;;;;;;;42.58;23.55;;;;;;;1.13;90.74;101526.09;2000471;29;29697;-63
2021/12/06 09:44:04;;;;;;;40.55;21.90;;;;;;;1.12;90.34;101541.03;2000692;29;28192;-63
2021/12/06 09:45:10;;;;;;;41.00;22.35;;;;;;;1.13;90.84;101540.19;1985540;29;22352;-63
2021/12/06 09:46:13;;;;;;;38.22;21.55;;;;;;;1.11;90.50;101541.91;1988135;29;38492;-63
2021/12/06 09:47:15;;;;;;;39.55;21.73;;;;;;;1.07;90.38;101549.69;1993302;29;22800;-63
2021/12/06 09:48:21;;;;;;;39.92;21.92;;;;;;;1.07;90.09;101544.41;1994357;29;20054;-70
2021/12/06 09:49:27;;;;;;;36.55;21.10;;;;;;;1.06;90.84;101535.59;2000160;29;44785;-63
2021/12/06 09:50:38;;;;;;;42.05;21.77;;;;;;;1.08;90.62;101539.16;1992155;29;46638;-63
2021/12/06 09:51:59;;;;;;;41.05;21.58;;;;;;;1.06;90.16;101540.88;1994794;29;20214;-63
2021/12/06 09:53:07;;;;;;;39.60;21.48;;;;;;;1.06;90.85;101540.88;2001399;29;43306;-63
2021/12/06 09:54:10;;;;;;;39.97;21.33;;;;;;;1.06;90.29;101539.97;2001840;29;33947;-64
2021/12/06 09:55:12;;;;;;;42.97;23.35;;;;;;;1.08;90.81;101540.94;2000842;29;44733;-63
2021/12/06 09:56:23;;;;;;;43.17;23.33;;;;;;;1.08;90.59;101536.53;2001225;29;31803;-63
2021/12/06 09:57:25;;;;;;;40.55;22.13;;;;;;;1.10;90.81;101545.38;1992504;29;44372;-63
2021/12/06 09:58:30;;;;;;;42.28;22.83;;;;;;;1.11;90.25;101535.72;1993273;29;20917;-64
2021/12/06 09:59:37;;;;;;;42.40;22.23;;;;;;;1.10;90.44;101532.19;2001438;29;25868;-63
2021/12/06 10:00:50;;;;;;;40.15;21.83;;;;;;;1.09;90.38;101521.59;1999349;29;45202;-63
2021/12/06 10:02:03;;;;;;;44.90;22.13;;;;;;;1.10;90.77;101528.66;1993564;29;20081;-63
2021/12/06 10:03:05;;;;;;;40.67;21.33;;;;;;;1.10;90.28;101534.81;1995368;29;45366;-63
2021/12/06 10:04:09;;;;;;;39.60;20.77;;;;;;;1.07;90.57;101529.47;2000308;29;44709;-63
2021/12/06 10:05:11;;;;;;;41.55;21.05;;;;;;;1.11;90.09;101530.44;1992555;29;36333;-63
2021/12/06 10:06:17;;;;;;;40.28;21.75;;;;;;;1.06;90.86;101527.69;1992907;29;43968;-63
2021/12/06 10:07:20;;;;;;;40.72;22.10;;;;;;;1.09;90.87;101521.59;2000496;29;42400;-63
2021/12/06 10:08:22;;;;;;;42.00;21.83;;;;;;;1.12;90.65;101522.56;1999039;29;44303;-63
2021/12/06 10:09:25;;;;;;;39.75;21.05;;;;;;;1.17;91.30;101524.41;2000829;29;45885;-63
2021/12/06 10:10:29;;;;;;;40.38;21.08;;;;;;;1.13;90.76;101519.09;2000891;29;45029;-63
2021/12/06 10:11:31;;;;;;;40.53;20.98;;;;;;;1.15;90.33;101524.41;2000754;29;46741;-63
2021/12/06 10:12:34;;;;;;;40.15;20.95;;;;;;;1.14;90.02;101526.13;2000111;29;42486;-63
2021/12/06 10:13:36;;;;;;;39.17;20.65;;;;;;;1.12;90.23;101519.94;2000531;29;45302;-63
2021/12/06 10:14:38;;;;;;;38.65;20.88;;;;;;;1.15;90.33;101521.75;2000527;29;44637;-63
2021/12/06 10:15:48;;;;;;;40.83;21.45;;;;;;;1.14;90.34;101528.75;2000583;29;21077;-63
2021/12/06 10:16:49;;;;;;;40.33;21.30;;;;;;;1.17;90.93;101530.59;2001261;29;28991;-63
2021/12/06 10:17:54;;;;;;;37.60;20.25;;;;;;;1.18;90.99;101532.38;2000464;29;42731;-63
2021/12/06 10:18:57;;;;;;;40.90;20.90;;;;;;;1.18;90.83;101527.09;2001136;29;20935;-63
2021/12/06 10:20:00;;;;;;;42.20;21.65;;;;;;;1.23;90.96;101529.84;2000979;29;32137;-63
2021/12/06 10:21:04;;;;;;;42.13;21.52;;;;;;;1.21;90.95;101534.22;2000907;29;33445;-63
2021/12/06 10:22:08;;;;;;;37.85;20.08;;;;;;;1.23;90.60;101529.84;2001392;29;20057;-63
2021/12/06 10:23:12;;;;;;;42.63;21.63;;;;;;;1.20;90.57;101535.94;2002456;29;21144;-63
2021/12/06 10:24:21;;;;;;;37.20;18.45;;;;;;;1.18;89.88;101527.09;1991753;29;45382;-63
2021/12/06 10:25:37;;;;;;;40.05;19.80;;;;;;;1.20;90.13;101529.78;1993853;29;37726;-63
2021/12/06 10:26:46;;;;;;;41.22;19.83;;;;;;;1.19;90.22;101525.38;1992032;29;44340;-63
2021/12/06 10:28:04;;;;;;;42.72;21.92;;;;;;;1.19;90.70;101525.38;1995314;29;36971;-64
2021/12/06 10:29:11;;;;;;;40.40;19.42;;;;;;;1.18;90.85;101523.56;2000385;29;44404;-63
2021/12/06 10:30:15;;;;;;;46.25;21.60;;;;;;;1.20;91.21;101522.75;1999429;29;44268;-63
2021/12/06 10:31:18;;;;;;;40.53;20.35;;;;;;;1.21;91.31;101515.75;2000040;29;45339;-63
2021/12/06 10:32:28;;;;;;;45.28;21.50;;;;;;;1.21;91.04;101518.38;2000664;29;34213;-63
2021/12/06 10:33:40;;;;;;;40.33;20.83;;;;;;;1.22;91.18;101522.78;2001504;29;20065;-63
2021/12/06 10:34:48;;;;;;;40.63;18.90;;;;;;;1.22;91.07;101517.50;1992077;29;44174;-63
2021/12/06 10:35:59;;;;;;;46.58;22.17;;;;;;;1.19;91.12;101514.81;1994843;29;20055;-63
2021/12/06 10:37:01;;;;;;;47.72;23.48;;;;;;;1.21;91.16;101510.47;2000750;29;34270;-63
2021/12/06 10:38:07;;;;;;;45.25;21.65;;;;;;;1.23;91.35;101521.94;2000122;29;42583;-63
2021/12/06 10:39:10;;;;;;;41.75;21.27;;;;;;;1.23;91.06;101514.03;1992172;29;45536;-63
2021/12/06 10:40:27;;;;;;;46.53;21.70;;;;;;;1.24;91.58;101523.72;1993366;29;20074;-64
2021/12/06 10:41:33;;;;;;;44.72;22.17;;;;;;;1.25;91.51;101517.59;2000620;29;44309;-63
2021/12/06 10:42:41;;;;;;;48.97;22.35;;;;;;;1.25;91.01;101520.22;1999193;29;46337;-63
2021/12/06 10:43:57;;;;;;;53.78;23.17;;;;;;;1.23;91.11;101514.91;2001131;29;32564;-64
2021/12/06 10:45:09;;;;;;;45.95;21.42;;;;;;;1.26;91.40;101524.66;1998707;29;43638;-63
2021/12/06 10:46:16;;;;;;;54.53;24.40;;;;;;;1.25;90.99;101515.84;2000206;29;46601;-63
2021/12/06 10:47:17;;;;;;;49.15;22.38;;;;;;;1.27;91.59;101522.03;1992942;29;21276;-63
2021/12/06 10:48:30;;;;;;;52.08;23.80;;;;;;;1.24;91.06;101515.78;1993176;29;42660;-62
2021/12/06 10:49:32;;;;;;;50.17;22.52;;;;;;;1.22;91.24;101517.50;2000260;29;47946;-62
2021/12/06 10:50:41;;;;;;;51.05;23.23;;;;;;;1.24;91.41;101515.78;1992674;29;20058;-63
2021/12/06 10:51:46;;;;;;;53.15;22.70;;;;;;;1.23;91.26;101511.41;1993082;29;46153;-63
2021/12/06 10:52:59;;;;;;;56.60;23.13;;;;;;;1.23;91.46;101508.75;1998785;29;41431;-62
2021/12/06 10:54:16;;;;;;;50.13;21.77;;;;;;;1.25;91.02;101509.69;2001823;29;45123;-62
2021/12/06 10:55:22;;;;;;;39.30;17.55;;;;;;;1.26;91.54;101508.84;2000214;29;43707;-63
2021/12/06 10:56:36;;;;;;;52.78;22.48;;;;;;;1.23;91.65;101508.75;2000885;29;24297;-63
2021/12/06 10:57:56;;;;;;;52.30;20.83;;;;;;;1.24;91.91;101510.53;2000231;29;46590;-62
2021/12/06 10:59:03;;;;;;;51.72;23.00;;;;;;;1.24;91.96;101505.25;2000051;29;45564;-63
2021/12/06 11:00:06;;;;;;;53.35;23.00;;;;;;;1.21;91.42;101506.06;1999393;29;31379;-63
2021/12/06 11:01:16;;;;;;;44.35;20.80;;;;;;;1.21;91.85;101500.81;2000105;29;45855;-62
2021/12/06 11:02:18;;;;;;;52.30;22.33;;;;;;;1.20;91.88;101501.66;2000995;29;46262;-63
2021/12/06 11:03:52;;;;;;;56.92;23.40;;;;;;;1.22;92.13;101502.59;2001429;29;31683;-63
2021/12/06 11:04:54;;;;;;;50.00;22.27;;;;;;;1.23;92.17;101496.44;2001841;29;25987;-63
2021/12/06 11:06:10;;;;;;;53.97;23.15;;;;;;;1.22;92.10;101496.41;2001692;29;46002;-64
2021/12/06 11:07:12;;;;;;;59.53;24.20;;;;;;;1.24;92.66;101500.88;2001404;29;34279;-63
2021/12/06 11:08:17;;;;;;;54.83;23.25;;;;;;;1.28;92.44;101501.84;2001592;29;45412;-62
2021/12/06 11:09:26;;;;;;;56.55;24.17;;;;;;;1.28;92.16;101500.09;2001846;29;43498;-63
2021/12/06 11:10:28;;;;;;;59.67;24.85;;;;;;;1.28;91.79;101510.66;2001499;29;45953;-63
2021/12/06 11:11:38;;;;;;;56.30;24.55;;;;;;;1.32;92.23;101504.59;2002880;29;20126;-63
2021/12/06 11:12:43;;;;;;;62.10;24.85;;;;;;;1.33;92.05;101501.09;2001578;29;33794;-63
2021/12/06 11:13:50;;;;;;;45.97;20.50;;;;;;;1.40;92.31;101501.22;2001293;29;42999;-63
2021/12/06 11:14:52;;;;;;;62.67;25.77;;;;;;;1.37;91.83;101496.78;2000211;29;37084;-63
2021/12/06 11:16:05;;;;;;;61.95;25.40;;;;;;;1.37;92.40;101488.00;2001854;29;20050;-63
2021/12/06 11:17:19;;;;;;;57.05;23.40;;;;;;;1.37;91.70;101486.25;1993561;29;32378;-62
2021/12/06 11:18:45;;;;;;;60.22;23.67;;;;;;;1.36;91.75;101484.44;1996061;29;40291;-62
2021/12/06 11:19:51;;;;;;;51.05;21.02;;;;;;;1.38;91.50;101489.75;2002642;29;20057;-63
2021/12/06 11:20:53;;;;;;;50.90;21.55;;;;;;;1.39;91.89;101481.00;2001258;29;45923;-63
2021/12/06 11:22:06;;;;;;;61.60;25.55;;;;;;;1.38;92.01;101482.72;2000449;29;31171;-63
2021/12/06 11:23:08;;;;;;;64.28;24.85;;;;;;;1.36;92.05;101484.44;1993711;29;36951;-63
2021/12/06 11:24:19;;;;;;;58.10;24.17;;;;;;;1.34;91.83;101481.75;1995931;29;35913;-62
2021/12/06 11:25:31;;;;;;;58.95;23.38;;;;;;;1.33;91.96;101487.03;2001185;29;30583;-63
2021/12/06 11:26:39;;;;;;;59.58;24.55;;;;;;;1.32;92.15;101482.59;1991938;29;44306;-63
2021/12/06 11:27:42;;;;;;;60.03;25.35;;;;;;;1.29;92.53;101485.16;1989480;29;39283;-63
2021/12/06 11:28:44;;;;;;;66.68;25.92;;;;;;;1.28;92.39;101481.63;1993937;29;20088;-64
2021/12/06 11:29:51;;;;;;;66.45;24.48;;;;;;;1.31;92.24;101486.06;1992719;29;45427;-63
2021/12/06 11:31:05;;;;;;;66.68;25.45;;;;;;;1.31;92.21;101472.88;1987436;29;20055;-63
2021/12/06 11:32:22;;;;;;;60.90;23.30;;;;;;;1.32;92.48;101477.31;1986613;29;20043;-62
2021/12/06 11:33:35;;;;;;;67.88;26.65;;;;;;;1.32;92.26;101485.22;1990104;29;46400;-62
2021/12/06 11:34:56;;;;;;;65.03;26.52;;;;;;;1.33;92.87;101487.03;2001173;29;44418;-62
2021/12/06 11:36:18;;;;;;;55.53;23.95;;;;;;;1.34;92.57;101483.53;2031849;23;20074;-61
2021/12/06 11:37:27;;;;;;;67.40;26.83;;;;;;;1.32;92.24;101472.94;1990175;29;45973;-63
2021/12/06 11:38:30;;;;;;;66.38;25.88;;;;;;;1.30;91.85;101477.28;1995538;29;44107;-61
2021/12/06 11:39:31;;;;;;;65.57;24.88;;;;;;;1.32;92.38;101467.66;2000863;29;45140;-64
2021/12/06 11:40:38;;;;;;;71.97;27.40;;;;;;;1.30;92.72;101466.72;2000993;29;39910;-64
2021/12/06 11:41:46;;;;;;;69.00;26.63;;;;;;;1.32;92.26;101465.00;2000270;29;45335;-62
2021/12/06 11:42:53;;;;;;;68.35;26.23;;;;;;;1.33;92.92;101464.16;2000413;29;45977;-62
2021/12/06 11:43:54;;;;;;;67.63;24.45;;;;;;;1.35;92.58;101466.84;1999341;29;45705;-64
2021/12/06 11:44:56;;;;;;;67.80;24.63;;;;;;;1.36;92.70;101462.44;1997901;29;45138;-62
2021/12/06 11:45:59;;;;;;;73.95;27.52;;;;;;;1.31;92.62;101465.88;1992946;29;43594;-62
2021/12/06 11:47:15;;;;;;;67.78;27.25;;;;;;;1.34;92.82;101467.69;1993431;29;45758;-62
2021/12/06 11:48:39;;;;;;;76.65;28.40;;;;;;;1.35;92.33;101472.13;1993994;29;34691;-63
2021/12/06 11:50:01;;;;;;;66.80;25.33;;;;;;;1.34;92.46;101459.78;1994433;29;24180;-64
2021/12/06 11:51:03;;;;;;;68.60;25.20;;;;;;;1.36;92.79;101454.53;1993636;29;35706;-62
2021/12/06 11:52:10;;;;;;;73.38;28.48;;;;;;;1.37;92.67;101456.34;1991925;29;45458;-63
2021/12/06 11:53:18;;;;;;;76.72;29.08;;;;;;;1.37;92.63;101456.34;1993191;29;44276;-63
2021/12/06 11:54:20;;;;;;;71.63;27.88;;;;;;;1.38;92.49;101456.34;1993482;29;44291;-63
2021/12/06 11:55:26;;;;;;;69.75;26.58;;;;;;;1.38;92.75;101458.09;1995377;29;44522;-63
2021/12/06 11:56:33;;;;;;;63.70;26.25;;;;;;;1.40;92.70;101454.66;1985761;29;34128;-63
2021/12/06 11:57:46;;;;;;;59.53;25.00;;;;;;;1.41;92.53;101450.25;1989411;29;43701;-63
2021/12/06 11:58:52;;;;;;;69.90;25.88;;;;;;;1.41;93.02;101451.16;1992136;29;44239;-63
2021/12/06 12:00:06;;;;;;;65.93;26.55;;;;;;;1.45;92.92;101446.84;1985649;29;46346;-63
2021/12/06 12:01:32;;;;;;;70.32;25.75;;;;;;;1.46;92.54;101452.16;1988584;29;20048;-62
2021/12/06 12:02:45;;;;;;;70.78;28.15;;;;;;;1.47;92.74;101447.75;1992920;29;44587;-65
2021/12/06 12:03:56;;;;;;;67.22;26.33;;;;;;;1.51;92.35;101450.50;1993765;29;44638;-64
2021/12/06 12:05:21;;;;;;;68.95;27.33;;;;;;;1.51;92.78;101455.78;1993594;29;35423;-63
2021/12/06 12:06:40;;;;;;;73.65;27.73;;;;;;;1.52;92.50;101446.09;1993358;29;45268;-64
2021/12/06 12:07:59;;;;;;;69.10;26.63;;;;;;;1.52;92.79;101448.75;1995455;29;30454;-64
2021/12/06 12:09:20;;;;;;;65.80;24.92;;;;;;;1.55;92.50;101442.66;1993505;29;44319;-63
2021/12/06 12:10:35;;;;;;;77.85;27.92;;;;;;;1.53;92.54;101443.50;1993942;29;31703;-62
2021/12/06 12:12:13;;;;;;;64.85;24.77;;;;;;;1.60;92.68;101446.28;1993768;29;45131;-62
2021/12/06 12:13:32;;;;;;;68.32;26.80;;;;;;;1.62;92.46;101434.91;1990914;29;46511;-61
2021/12/06 12:14:41;;;;;;;69.95;25.58;;;;;;;1.62;91.35;101444.59;1992924;29;43957;-62
2021/12/06 12:15:42;;;;;;;64.05;25.20;;;;;;;1.65;91.96;101439.34;1978710;29;29263;-62
2021/12/06 12:16:44;;;;;;;66.82;26.83;;;;;;;1.65;91.10;101436.72;1978182;29;44745;-62
2021/12/06 12:17:49;;;;;;;70.22;27.98;;;;;;;1.68;91.85;101442.06;1986240;29;45453;-63
2021/12/06 12:18:54;;;;;;;65.30;28.02;;;;;;;1.67;91.46;101453.47;1985933;29;46499;-64
2021/12/06 12:19:58;;;;;;;66.57;27.60;;;;;;;1.69;91.48;101441.22;1986242;29;42616;-62
2021/12/06 12:21:00;;;;;;;57.17;24.50;;;;;;;1.73;91.81;101448.34;1985407;29;43079;-67
2021/12/06 12:22:03;;;;;;;57.75;25.08;;;;;;;1.77;92.02;101444.88;1978116;29;43659;-62
2021/12/06 12:23:08;;;;;;;74.43;27.80;;;;;;;1.78;91.48;101441.41;1978731;29;45360;-62
2021/12/06 12:24:10;;;;;;;62.38;26.88;;;;;;;1.82;91.11;101440.59;1985961;29;43569;-62
2021/12/06 12:25:21;;;;;;;68.38;28.02;;;;;;;1.85;90.44;101437.16;1986667;29;45691;-62
2021/12/06 12:26:23;;;;;;;62.17;25.80;;;;;;;1.91;90.52;101435.50;1986137;29;33088;-63
2021/12/06 12:27:38;;;;;;;59.70;25.17;;;;;;;1.93;90.21;101434.66;1985888;29;29034;-62
2021/12/06 12:29:55;;;;;;;63.80;26.42;;;;;;;1.98;90.58;101433.91;1979356;29;45548;-62
2021/12/06 12:30:59;;;;;;;65.57;28.55;;;;;;;1.99;90.84;101433.03;1977694;29;45739;-62
2021/12/06 12:32:05;;;;;;;64.57;26.40;;;;;;;2.01;89.89;101435.69;1978211;29;40590;-63
2021/12/06 12:33:09;;;;;;;59.13;25.15;;;;;;;2.02;90.31;101435.72;1985723;29;34782;-62
2021/12/06 12:34:11;;;;;;;64.50;28.17;;;;;;;2.04;90.01;101434.00;1977889;29;43646;-62
2021/12/06 12:35:16;;;;;;;57.00;25.77;;;;;;;2.04;90.50;101435.75;1978801;29;30946;-62
2021/12/06 12:36:21;;;;;;;64.20;27.13;;;;;;;2.03;90.64;101432.25;1984321;29;42656;-69
2021/12/06 12:37:24;;;;;;;63.75;27.02;;;;;;;2.02;89.96;101435.72;1978758;29;21644;-63
2021/12/06 12:38:30;;;;;;;60.30;26.65;;;;;;;2.05;90.33;101434.91;1978052;29;46720;-64
2021/12/06 12:39:33;;;;;;;54.58;23.33;;;;;;;2.08;90.92;101427.03;1985723;29;42444;-63
2021/12/06 12:40:50;;;;;;;65.13;27.15;;;;;;;2.07;89.99;101425.25;1985526;29;44293;-63
2021/12/06 12:42:00;;;;;;;51.72;24.52;;;;;;;2.05;90.77;101422.59;1985369;29;45272;-62
2021/12/06 12:43:08;;;;;;;;;;;;;;;2.06;89.92;101415.56;1985013;29;44760;-62
2021/12/06 12:44:10;;;;;;;50.72;22.10;;;;;;;2.11;90.61;101421.81;1984917;29;45215;-62
2021/12/06 12:45:14;;;;;;;61.38;26.27;;;;;;;2.13;90.29;101416.56;1990596;29;42021;-62
2021/12/06 12:46:30;;;;;;;59.80;26.02;;;;;;;2.17;90.35;101418.41;1993531;29;45428;-62
2021/12/06 12:47:35;;;;;;;56.45;25.50;;;;;;;2.16;89.97;101422.81;1993634;29;44569;-61
2021/12/06 12:49:04;;;;;;;59.67;26.10;;;;;;;2.19;90.28;101411.38;1993558;29;42902;-62
2021/12/06 12:50:15;;;;;;;55.58;25.55;;;;;;;2.19;90.15;101407.03;1993267;29;45499;-63
2021/12/06 12:51:36;;;;;;;52.83;24.00;;;;;;;2.17;89.60;101411.38;1993087;29;43892;-62
2021/12/06 12:52:51;;;;;;;56.50;25.92;;;;;;;2.20;89.59;101413.19;1992739;29;44356;-62
2021/12/06 12:54:11;;;;;;;50.97;22.30;;;;;;;2.20;89.61;101405.25;1992655;29;45873;-61
2021/12/06 12:55:41;;;;;;;59.45;25.88;;;;;;;2.23;89.91;101402.69;1992757;29;43369;-62
2021/12/06 12:56:48;;;;;;;;;;;;;;;2.24;89.89;101404.44;1993445;29;44402;-62
2021/12/06 12:58:14;;;;;;;51.42;22.25;;;;;;;2.26;90.22;101403.63;1992870;29;43582;-61
2021/12/06 12:59:36;;;;;;;56.95;24.95;;;;;;;2.23;89.80;101392.13;1993537;29;45416;-62
2021/12/06 13:00:57;;;;;;;54.65;23.70;;;;;;;2.22;89.35;101391.19;1992735;29;41675;-61
2021/12/06 13:02:21;;;;;;;51.90;23.77;;;;;;;2.20;89.67;101390.28;1985185;29;43930;-61
2021/12/06 13:03:34;;;;;;;56.60;24.73;;;;;;;2.17;88.65;101382.34;1990279;29;45835;-61
2021/12/06 13:04:57;;;;;;;64.93;26.10;;;;;;;2.22;89.16;101372.72;1985079;29;40917;-61
2021/12/06 13:06:36;;;;;;;55.30;24.02;;;;;;;2.21;89.00;101378.88;1987346;29;45398;-61
2021/12/06 13:07:38;;;;;;;64.22;26.58;;;;;;;2.19;89.45;101375.31;1994259;29;20149;-61
2021/12/06 13:08:40;;;;;;;52.85;23.75;;;;;;;2.22;89.46;101370.06;1993077;29;43380;-61
2021/12/06 13:09:42;;;;;;;47.13;22.23;;;;;;;2.23;89.06;101366.56;1992275;29;44045;-61